createdAt,value
2019-01-31T03:41:10.507Z,81.37
2019-01-31T03:56:08.950Z,80.83
2019-01-31T03:58:44.713Z,80.51
2019-01-31T04:01:15.661Z,80.73
2019-01-31T04:04:15.937Z,80.80
2019-01-31T04:09:35.068Z,80.85
2019-01-31T04:12:10.367Z,80.94
2019-01-31T04:14:55.795Z,80.78
2019-01-31T04:17:31.480Z,80.69
2019-01-31T04:20:01.697Z,80.41
2019-01-31T04:25:27.686Z,80.02
2019-01-31T04:28:05.817Z,79.87
2019-01-31T04:30:35.357Z,79.68
2019-01-31T04:35:59.199Z,79.59
2019-01-31T04:38:28.721Z,79.54
2019-01-31T04:40:58.278Z,79.61
2019-01-31T04:43:27.578Z,79.58
2019-01-31T04:45:57.542Z,79.67
2019-01-31T04:48:29.050Z,79.48
2019-01-31T04:50:58.582Z,79.48
2019-01-31T04:53:27.587Z,79.39
2019-01-31T04:55:56.894Z,79.28
2019-01-31T04:58:26.104Z,79.35
2019-01-31T05:00:55.334Z,79.33
2019-01-31T05:03:24.666Z,79.32
2019-01-31T05:05:54.425Z,79.50
2019-01-31T05:08:23.418Z,79.46
2019-01-31T05:10:52.527Z,79.63
2019-01-31T05:13:23.157Z,79.61
2019-01-31T05:15:52.145Z,79.52
2019-01-31T05:18:21.227Z,79.60
2019-01-31T05:20:50.321Z,79.46
2019-01-31T05:23:19.389Z,79.53
2019-01-31T05:25:48.443Z,79.47
2019-01-31T05:28:17.674Z,79.31
2019-01-31T05:30:46.606Z,79.23
2019-01-31T05:33:15.666Z,79.17
2019-01-31T05:35:44.756Z,79.13
2019-01-31T05:38:13.835Z,79.11
2019-01-31T05:40:54.800Z,79.08
2019-01-31T05:43:11.973Z,79.02
2019-01-31T05:45:41.037Z,78.92
2019-01-31T05:48:10.094Z,78.89
2019-01-31T05:50:39.206Z,78.81
2019-01-31T05:53:08.269Z,78.80
2019-01-31T05:55:37.339Z,78.82
2019-01-31T05:58:06.423Z,78.96
2019-01-31T06:00:35.494Z,78.91
2019-01-31T06:03:04.550Z,78.83
2019-01-31T06:05:33.633Z,78.84
2019-01-31T06:08:02.689Z,78.84
2019-01-31T06:10:33.493Z,78.95
2019-01-31T06:13:00.847Z,78.82
2019-01-31T06:15:29.917Z,79.02
2019-01-31T06:17:58.978Z,78.98
2019-01-31T06:20:28.069Z,79.02
2019-01-31T06:22:57.135Z,78.96
2019-01-31T06:25:26.201Z,79.00
2019-01-31T06:27:55.292Z,79.04
2019-01-31T06:30:24.350Z,78.91
2019-01-31T06:32:53.412Z,78.94
2019-01-31T06:35:22.515Z,78.92
2019-01-31T06:37:51.566Z,78.99
2019-01-31T06:40:20.944Z,78.87
2019-01-31T06:42:49.970Z,78.73
2019-01-31T06:45:19.034Z,78.80
2019-01-31T06:47:48.103Z,78.64
2019-01-31T06:50:17.194Z,78.59
2019-01-31T06:52:46.251Z,78.59
2019-01-31T06:55:15.310Z,78.53
2019-01-31T06:57:44.451Z,78.51
2019-01-31T07:00:14.327Z,78.52
2019-01-31T07:02:43.382Z,78.62
2019-01-31T07:05:12.462Z,78.43
2019-01-31T07:07:41.532Z,78.27
2019-01-31T07:10:10.599Z,78.17
2019-01-31T07:12:39.690Z,78.15
2019-01-31T07:15:08.751Z,78.22
2019-01-31T07:17:37.803Z,78.22
2019-01-31T07:20:06.971Z,78.37
2019-01-31T07:22:36.031Z,78.36
2019-01-31T07:25:05.121Z,78.40
2019-01-31T07:27:34.211Z,78.45
2019-01-31T07:30:03.277Z,78.20
2019-01-31T07:32:32.322Z,78.43
2019-01-31T07:35:01.411Z,78.45
2019-01-31T07:37:30.475Z,78.43
2019-01-31T07:39:59.537Z,78.46
2019-01-31T07:42:28.652Z,78.74
2019-01-31T07:44:57.716Z,78.67
2019-01-31T07:47:26.784Z,78.42
2019-01-31T07:49:55.863Z,78.38
2019-01-31T07:52:24.935Z,78.43
2019-01-31T07:54:54.001Z,78.38
2019-01-31T07:57:23.168Z,78.45
2019-01-31T07:59:52.145Z,78.38
2019-01-31T08:02:21.218Z,78.40
2019-01-31T08:04:50.365Z,78.33
2019-01-31T08:07:19.430Z,78.38
2019-01-31T08:09:48.505Z,78.46
2019-01-31T08:12:17.584Z,78.25
2019-01-31T08:14:46.650Z,78.25
2019-01-31T08:17:15.721Z,78.27
2019-01-31T08:19:44.815Z,78.33
2019-01-31T08:22:13.875Z,78.28
2019-01-31T08:24:42.937Z,78.41
2019-01-31T08:27:12.968Z,78.30
2019-01-31T08:29:42.030Z,78.12
2019-01-31T08:32:11.131Z,78.00
2019-01-31T08:34:40.201Z,77.98
2019-01-31T08:37:09.269Z,78.00
2019-01-31T08:39:38.375Z,78.00
2019-01-31T08:42:07.428Z,78.03
2019-01-31T08:44:36.499Z,78.02
2019-01-31T08:47:05.572Z,78.10
2019-01-31T08:49:34.696Z,78.04
2019-01-31T08:52:03.761Z,78.17
2019-01-31T08:54:32.827Z,78.24
2019-01-31T08:57:01.918Z,78.19
2019-01-31T08:59:30.984Z,78.28
2019-01-31T09:02:00.059Z,78.28
2019-01-31T09:04:29.140Z,78.42
2019-01-31T09:06:58.194Z,78.30
2019-01-31T09:09:27.265Z,78.47
2019-01-31T09:11:56.368Z,78.50
2019-01-31T09:14:25.445Z,78.46
2019-01-31T09:16:54.512Z,78.83
2019-01-31T09:19:23.590Z,78.68
2019-01-31T09:21:52.657Z,78.71
2019-01-31T09:24:22.641Z,78.77
2019-01-31T09:26:59.579Z,78.83
2019-01-31T09:29:28.640Z,78.68
2019-01-31T09:32:03.442Z,78.85
2019-01-31T09:34:41.062Z,78.92
2019-01-31T09:37:25.827Z,78.98
2019-01-31T09:39:55.717Z,78.87
2019-01-31T09:42:29.599Z,78.80
2019-01-31T09:45:00.342Z,78.71
2019-01-31T09:47:33.764Z,78.74
2019-01-31T09:50:08.331Z,78.67
2019-01-31T09:52:54.524Z,78.68
2019-01-31T09:55:22.615Z,78.67
2019-01-31T09:57:53.467Z,78.84
2019-01-31T10:00:27.505Z,78.94
2019-01-31T10:03:00.117Z,79.15
2019-01-31T10:05:44.572Z,79.15
2019-01-31T10:08:15.131Z,78.92
2019-01-31T10:11:00.541Z,78.75
2019-01-31T10:13:35.192Z,78.67
2019-01-31T10:16:11.255Z,78.74
2019-01-31T10:18:47.039Z,78.61
2019-01-31T10:21:17.747Z,78.52
2019-01-31T10:23:52.486Z,78.50
2019-01-31T10:26:24.127Z,78.46
2019-01-31T10:28:58.748Z,78.46
2019-01-31T10:31:35.443Z,78.35
2019-01-31T10:34:04.501Z,78.22
2019-01-31T10:36:35.227Z,78.26
2019-01-31T10:39:08.867Z,78.26
2019-01-31T10:41:44.804Z,78.30
2019-01-31T10:44:32.888Z,78.47
2019-01-31T10:47:05.601Z,78.46
2019-01-31T10:49:41.253Z,78.54
2019-01-31T10:52:13.258Z,78.67
2019-01-31T10:54:42.342Z,78.71
2019-01-31T10:57:16.946Z,78.66
2019-01-31T10:59:46.970Z,78.44
2019-01-31T11:02:20.617Z,78.59
2019-01-31T11:05:05.584Z,78.57
2019-01-31T11:07:42.318Z,78.53
2019-01-31T11:10:13.372Z,78.66
2019-01-31T11:12:59.881Z,78.39
2019-01-31T11:15:22.760Z,78.46
2019-01-31T11:17:53.736Z,78.39
2019-01-31T11:20:27.386Z,78.27
2019-01-31T11:23:11.900Z,78.24
2019-01-31T11:25:44.076Z,78.37
2019-01-31T11:28:14.742Z,78.54
2019-01-31T11:30:46.605Z,78.39
2019-01-31T11:33:36.154Z,78.47
2019-01-31T11:38:56.402Z,78.44
2019-01-31T11:41:32.305Z,78.28
2019-01-31T11:44:18.642Z,78.50
2019-01-31T11:46:47.737Z,78.64
2019-01-31T11:49:32.900Z,78.74
2019-01-31T11:52:17.570Z,78.56
2019-01-31T11:54:55.495Z,78.73
2019-01-31T11:57:32.186Z,78.65
2019-01-31T12:00:01.242Z,78.50
2019-01-31T12:02:30.309Z,78.46
2019-01-31T12:04:59.393Z,78.40
2019-01-31T12:07:28.448Z,78.26
2019-01-31T12:09:57.504Z,78.14
2019-01-31T12:12:26.882Z,78.16
2019-01-31T12:14:55.947Z,78.27
2019-01-31T12:17:25.003Z,78.14
2019-01-31T12:19:54.079Z,78.19
2019-01-31T12:22:23.150Z,78.21
2019-01-31T12:24:52.212Z,78.11
2019-01-31T12:27:21.294Z,78.40
2019-01-31T12:29:50.364Z,78.16
2019-01-31T12:32:19.421Z,78.25
2019-01-31T12:34:48.611Z,78.06
2019-01-31T12:37:17.741Z,77.87
2019-01-31T12:39:46.782Z,77.82
2019-01-31T12:42:15.863Z,77.79
2019-01-31T12:44:44.970Z,77.96
2019-01-31T12:47:14.023Z,78.00
2019-01-31T12:49:43.118Z,78.20
2019-01-31T12:52:12.178Z,78.47
2019-01-31T12:54:41.256Z,78.59
2019-01-31T12:57:10.366Z,78.69
2019-01-31T12:59:39.442Z,78.87
2019-01-31T13:02:08.498Z,79.06
2019-01-31T13:04:37.592Z,79.19
2019-01-31T13:07:06.653Z,79.19
2019-01-31T13:09:35.719Z,79.00
2019-01-31T13:12:04.815Z,78.88
2019-01-31T13:14:33.911Z,78.77
2019-01-31T13:17:02.995Z,78.54
2019-01-31T13:19:32.123Z,78.51
2019-01-31T13:22:01.183Z,78.37
2019-01-31T13:24:30.250Z,78.33
2019-01-31T13:26:59.336Z,78.37
2019-01-31T13:29:28.816Z,78.26
2019-01-31T13:31:57.843Z,78.12
2019-01-31T13:34:26.935Z,78.13
2019-01-31T13:36:57.914Z,77.98
2019-01-31T13:39:26.982Z,77.83
2019-01-31T13:41:56.092Z,78.11
2019-01-31T13:44:25.152Z,77.98
2019-01-31T13:46:54.217Z,77.94
2019-01-31T13:49:23.303Z,77.75
2019-01-31T13:51:52.365Z,77.63
2019-01-31T13:54:21.440Z,77.47
2019-01-31T13:56:50.557Z,77.28
2019-01-31T13:59:19.631Z,77.25
2019-01-31T14:01:48.703Z,77.13
2019-01-31T14:04:17.865Z,77.07
2019-01-31T14:06:46.935Z,77.16
2019-01-31T14:09:15.988Z,77.16
2019-01-31T14:11:45.091Z,77.15
2019-01-31T14:14:14.148Z,77.25
2019-01-31T14:16:47.811Z,77.42
2019-01-31T14:19:12.308Z,77.65
2019-01-31T14:21:43.993Z,77.87
2019-01-31T14:24:10.421Z,77.73
2019-01-31T14:26:39.609Z,77.80
2019-01-31T14:29:08.675Z,77.93
2019-01-31T14:31:37.752Z,77.83
2019-01-31T14:34:12.463Z,77.83
2019-01-31T14:36:46.457Z,77.89
2019-01-31T14:39:15.431Z,77.79
2019-01-31T14:41:44.501Z,77.92
2019-01-31T14:44:20.227Z,77.94
2019-01-31T14:46:43.286Z,78.18
2019-01-31T14:49:12.238Z,78.12
2019-01-31T14:51:41.287Z,78.04
2019-01-31T14:54:10.382Z,78.12
2019-01-31T14:56:39.467Z,78.34
2019-01-31T14:59:08.538Z,78.48
2019-01-31T15:01:37.634Z,78.62
2019-01-31T15:04:06.697Z,78.68
2019-01-31T15:06:35.766Z,78.77
2019-01-31T15:09:04.878Z,78.73
2019-01-31T15:11:33.942Z,78.66
2019-01-31T15:14:03.091Z,78.79
2019-01-31T15:16:32.101Z,78.72
2019-01-31T15:19:01.179Z,78.85
2019-01-31T15:21:30.239Z,78.92
2019-01-31T15:23:59.743Z,79.06
2019-01-31T15:26:29.088Z,79.38
2019-01-31T15:28:58.437Z,79.04
2019-01-31T15:31:27.663Z,79.12
2019-01-31T15:33:56.751Z,79.54
2019-01-31T15:36:25.823Z,79.37
2019-01-31T15:38:54.926Z,79.55
2019-01-31T15:41:23.994Z,79.79
2019-01-31T15:43:53.068Z,79.98
2019-01-31T15:46:22.162Z,79.99
2019-01-31T15:48:51.242Z,80.20
2019-01-31T15:51:20.347Z,80.39
2019-01-31T15:53:49.699Z,80.25
2019-01-31T15:56:18.785Z,80.31
2019-01-31T15:58:47.843Z,80.36
2019-01-31T16:01:16.948Z,80.59
2019-01-31T16:03:46.016Z,81.03
2019-01-31T16:06:15.095Z,80.87
2019-01-31T16:08:44.201Z,80.95
2019-01-31T16:11:13.278Z,80.85
2019-01-31T16:13:42.379Z,80.68
2019-01-31T16:16:11.539Z,81.07
2019-01-31T16:18:40.538Z,81.26
2019-01-31T16:21:09.609Z,81.44
2019-01-31T16:23:38.711Z,81.54
2019-01-31T16:26:07.795Z,81.64
2019-01-31T16:28:36.881Z,81.45
2019-01-31T16:31:06.617Z,81.48
2019-01-31T16:33:35.625Z,81.19
2019-01-31T16:36:04.727Z,81.30
2019-01-31T16:38:33.924Z,81.33
2019-01-31T16:41:02.979Z,81.12
2019-01-31T16:43:32.056Z,81.22
2019-01-31T16:46:01.190Z,81.05
2019-01-31T16:48:30.270Z,81.10
2019-01-31T16:50:59.347Z,81.33
2019-01-31T16:53:28.457Z,81.20
2019-01-31T16:55:57.543Z,81.44
2019-01-31T16:58:26.631Z,81.56
2019-01-31T17:00:55.762Z,81.70
2019-01-31T17:03:24.831Z,81.74
2019-01-31T17:05:53.926Z,81.76
2019-01-31T17:08:23.019Z,81.84
2019-01-31T17:10:52.103Z,81.68
2019-01-31T17:13:21.168Z,82.08
2019-01-31T17:15:50.272Z,82.07
2019-01-31T17:18:19.344Z,82.21
2019-01-31T17:20:48.407Z,82.07
2019-01-31T17:23:17.528Z,81.88
2019-01-31T17:25:46.593Z,81.73
2019-01-31T17:28:15.673Z,81.82
2019-01-31T17:30:44.780Z,82.06
2019-01-31T17:33:13.831Z,81.93
2019-01-31T17:35:42.895Z,81.84
2019-01-31T17:38:11.984Z,81.88
2019-01-31T17:40:41.069Z,82.08
2019-01-31T17:43:10.133Z,81.95
2019-01-31T17:45:39.256Z,81.66
2019-01-31T17:48:08.356Z,81.65
2019-01-31T17:50:37.424Z,81.85
2019-01-31T17:53:06.514Z,82.05
2019-01-31T17:55:35.575Z,82.07
2019-01-31T17:58:04.646Z,82.14
2019-01-31T18:00:33.740Z,82.32
2019-01-31T18:03:02.804Z,82.51
2019-01-31T18:05:31.877Z,82.53
2019-01-31T18:08:00.983Z,82.51
2019-01-31T18:10:30.051Z,82.70
2019-01-31T18:12:59.127Z,82.71
2019-01-31T18:15:28.210Z,82.77
2019-01-31T18:17:57.268Z,82.65
2019-01-31T18:20:26.332Z,82.48
2019-01-31T18:22:55.423Z,82.43
2019-01-31T18:25:24.487Z,82.38
2019-01-31T18:27:53.579Z,82.47
2019-01-31T18:30:22.790Z,82.62
2019-01-31T18:32:52.757Z,82.25
2019-01-31T18:35:21.827Z,82.46
2019-01-31T18:37:50.919Z,82.48
2019-01-31T18:40:22.500Z,82.61
2019-01-31T18:42:51.580Z,82.55
2019-01-31T18:45:20.675Z,82.45
2019-01-31T18:47:49.763Z,82.52
2019-01-31T18:50:19.777Z,82.50
2019-01-31T18:52:48.913Z,82.47
2019-01-31T18:55:17.989Z,82.68
2019-01-31T18:57:47.061Z,82.71
2019-01-31T19:00:17.002Z,82.65
2019-01-31T19:02:46.071Z,82.60
2019-01-31T19:05:15.141Z,82.34
2019-01-31T19:07:44.236Z,82.27
2019-01-31T19:10:13.308Z,82.31
2019-01-31T19:12:42.366Z,82.18
2019-01-31T19:15:15.313Z,81.93
2019-01-31T19:17:45.384Z,81.86
2019-01-31T19:20:14.436Z,81.70
2019-01-31T19:22:43.530Z,81.60
2019-01-31T19:25:12.982Z,81.49
2019-01-31T19:27:42.057Z,81.33
2019-01-31T19:30:11.143Z,81.15
2019-01-31T19:32:40.206Z,81.00
2019-01-31T19:35:09.272Z,80.87
2019-01-31T19:37:38.356Z,80.96
2019-01-31T19:40:07.436Z,80.89
2019-01-31T19:42:36.486Z,80.92
2019-01-31T19:45:14.792Z,80.96
2019-01-31T19:47:43.858Z,80.96
2019-01-31T19:50:12.990Z,80.98
2019-01-31T19:52:42.054Z,80.97
2019-01-31T19:55:11.128Z,80.88
2019-01-31T19:57:40.303Z,80.93
2019-01-31T20:00:10.330Z,80.92
2019-01-31T20:02:39.401Z,80.81
2019-01-31T20:05:08.487Z,80.78
2019-01-31T20:07:37.553Z,80.70
2019-01-31T20:10:06.619Z,80.41
2019-01-31T20:12:35.726Z,80.48
2019-01-31T20:15:04.794Z,80.38
2019-01-31T20:17:33.862Z,80.38
2019-01-31T20:20:02.954Z,80.26
2019-01-31T20:22:32.025Z,80.15
2019-01-31T20:25:01.088Z,80.01
2019-01-31T20:27:35.527Z,79.92
2019-01-31T20:30:02.872Z,79.85
2019-01-31T20:32:31.976Z,79.69
2019-01-31T20:35:01.116Z,79.71
2019-01-31T20:37:30.197Z,79.80
2019-01-31T20:39:59.285Z,79.73
2019-01-31T20:42:28.344Z,79.78
2019-01-31T20:44:57.403Z,79.73
2019-01-31T20:47:26.498Z,79.65
2019-01-31T20:49:55.566Z,79.64
2019-01-31T20:52:24.894Z,79.65
2019-01-31T20:54:56.885Z,79.65
2019-01-31T20:57:25.741Z,79.70
2019-01-31T20:59:54.814Z,79.69
2019-01-31T21:02:23.922Z,79.65
2019-01-31T21:04:52.998Z,79.68
2019-01-31T21:07:22.065Z,79.74
2019-01-31T21:09:51.168Z,79.77
2019-01-31T21:12:20.241Z,79.81
2019-01-31T21:14:49.353Z,79.98
2019-01-31T21:17:18.559Z,79.90
2019-01-31T21:19:48.113Z,79.98
2019-01-31T21:22:17.089Z,79.88
2019-01-31T21:24:46.297Z,79.77
2019-01-31T21:27:15.372Z,79.86
2019-01-31T21:29:44.794Z,79.81
2019-01-31T21:32:13.812Z,79.95
2019-01-31T21:34:42.872Z,80.05
2019-01-31T21:37:12.727Z,80.01
2019-01-31T21:39:41.940Z,79.97
2019-01-31T21:42:11.022Z,79.98
2019-01-31T21:44:40.088Z,79.93
2019-01-31T21:47:09.198Z,79.90
2019-01-31T21:49:38.263Z,80.02
2019-01-31T21:52:07.309Z,80.05
2019-01-31T21:54:36.419Z,80.10
2019-01-31T21:57:05.480Z,80.22
2019-01-31T21:59:34.537Z,80.23
2019-01-31T22:02:03.670Z,80.29
2019-01-31T22:04:32.738Z,80.31
2019-01-31T22:07:05.552Z,80.31
2019-01-31T22:09:34.628Z,80.31
2019-01-31T22:12:03.684Z,80.31
2019-01-31T22:14:32.774Z,80.33
2019-01-31T22:17:01.861Z,80.22
2019-01-31T22:19:30.921Z,80.10
2019-01-31T22:22:00.029Z,80.05
2019-01-31T22:24:29.090Z,80.01
2019-01-31T22:26:58.175Z,80.01
2019-01-31T22:29:27.266Z,80.09
2019-01-31T22:31:56.328Z,79.99
2019-01-31T22:34:25.404Z,80.05
2019-01-31T22:36:54.494Z,79.96
2019-01-31T22:39:23.567Z,80.00
2019-01-31T22:41:52.630Z,80.13
2019-01-31T22:44:21.813Z,80.22
2019-01-31T22:46:50.882Z,80.29
2019-01-31T22:49:19.937Z,80.30
2019-01-31T22:51:49.119Z,80.31
2019-01-31T22:54:18.177Z,80.28
2019-01-31T22:56:59.011Z,80.38
2019-01-31T22:59:28.003Z,80.46
2019-01-31T23:01:57.060Z,80.28
2019-01-31T23:04:26.189Z,80.42
2019-01-31T23:06:55.254Z,80.60
2019-01-31T23:09:24.299Z,80.56
2019-01-31T23:11:53.671Z,80.58
2019-01-31T23:14:22.660Z,80.56
2019-01-31T23:16:51.725Z,80.40
2019-01-31T23:19:20.809Z,80.36
2019-01-31T23:21:49.859Z,80.49
2019-01-31T23:24:19.346Z,80.62
2019-01-31T23:26:48.371Z,80.78
2019-01-31T23:29:17.432Z,80.61
2019-01-31T23:31:46.487Z,80.73
2019-01-31T23:34:15.652Z,80.74
2019-01-31T23:36:44.739Z,80.83
2019-01-31T23:39:14.658Z,80.81
2019-01-31T23:41:43.745Z,80.72
2019-01-31T23:44:12.798Z,80.63
2019-01-31T23:46:41.849Z,80.63
2019-01-31T23:49:11.127Z,80.56
2019-01-31T23:51:40.193Z,80.51
2019-01-31T23:54:09.275Z,80.63
2019-01-31T23:56:38.375Z,80.77
2019-01-31T23:59:07.437Z,80.78
